Latest Coastal Weather Observations for Larapuna (Eddystone Point)

IDT60701

Issued at 8:15 pm EST Thursday 21 August 2014 (issued every 10 minutes, with the page automatically refreshed every 10 minutes)

About coastal observations | Map of coastal stations | Coastal observations for TAS | Marine services | Other Formats
Station Details ID: 092045 Name: LARAPUNA (EDDYSTONE POINT) Lat: -40.99 Lon: 148.35 Height: 19.7 m
Data from the previous 72 hours. | See also: Recent months at Larapuna (Eddystone Point)
Date/Time
EST
Temp

°C
Wind Pressure Rain
since 9am
mm
Weather Cloud Vis
km
Sea
Height
m
Swell
Dir
 
Speed
knots
Gust
knots
hPa Trend Height
m
Period
s
Dir
21/08:00pm 12.1 NE 15 18 1033.6 - 0.0 - - - - - - -
21/07:30pm 11.8 NE 14 16 1033.3 - 0.0 - - - - - - -
21/07:00pm 12.1 NE 14 17 1033.2 - 0.0 - - - - - - -
21/06:30pm 12.0 E 9 12 1033.0 - 0.0 - - - - - - -
21/06:00pm 11.7 ESE 7 9 1032.8 - 0.0 - - - - - - -
21/05:30pm 11.6 SE 8 10 1032.5 - 0.0 - - - - - - -
21/05:00pm 12.2 ESE 11 14 1032.3 - 0.0 - - - - - - -
21/04:30pm 13.2 ESE 8 11 1032.2 - 0.0 - - - - - - -
21/04:00pm 13.7 ESE 9 10 1032.1 - 0.0 - - - - - - -
21/03:30pm 13.7 SE 7 9 1032.0 - 0.0 - - - - - - -
21/03:00pm 14.2 ESE 9 11 1032.0 - 0.0 - - - - - - -
21/02:30pm 13.5 ESE 8 9 1032.1 - 0.0 - - - - - - -
21/02:00pm 14.3 ESE 8 10 1032.1 - 0.0 - - - - - - -
21/01:30pm 14.5 ESE 8 11 1032.2 - 0.0 - - - - - - -
21/01:00pm 14.9 ESE 9 11 1032.3 - 0.0 - - - - - - -
21/12:30pm 14.3 ESE 9 11 1032.5 - 0.0 - - - - - - -
21/12:00pm 14.3 SSE 8 11 1032.7 - 0.0 - - - - - - -
21/11:30am 14.9 SSE 10 11 1032.9 - 0.0 - - - - - - -
21/11:00am 14.5 SSE 10 12 1033.1 - 0.0 - - - - - - -
21/10:30am 14.2 SSE 11 13 1033.2 - 0.0 - - - - - - -
21/10:00am 14.3 SSE 11 13 1033.1 - 0.0 - - - - - - -
21/09:30am 12.7 SSE 10 12 1033.1 - 0.0 - - - - - - -
21/09:00am 11.6 S 10 12 1032.9 - 0.0 - - - - - - -
21/08:30am 10.5 S 12 14 1032.7 - 0.0 - - - - - - -
21/08:00am 10.0 S 11 13 1032.6 - 0.0 - - - - - - -
21/07:30am 9.2 SSW 10 11 1032.2 - 0.0 - - - - - - -
21/07:00am 9.0 SSW 10 12 1031.8 - 0.0 - - - - - - -
21/06:30am 8.9 SSW 10 11 1031.3 - 0.0 - - - - - - -
21/06:00am 8.5 SSW 10 11 1031.2 - 0.0 - - - - - - -
21/05:30am 8.4 SW 9 9 1030.9 - 0.0 - - - - - - -
21/05:00am 9.2 SSW 10 11 1030.8 - 0.0 - - - - - - -
21/04:30am 8.7 SSW 10 11 1030.5 - 0.0 - - - - - - -
21/04:00am 8.9 SSW 9 10 1030.3 - 0.0 - - - - - - -
21/03:30am 8.6 SSW 9 10 1030.0 - 0.0 - - - - - - -
21/03:00am 8.9 SW 9 10 1030.1 - 0.0 - - - - - - -
21/02:30am 9.4 SSW 10 12 1030.0 - 0.0 - - - - - - -
21/02:00am 9.3 SW 11 13 1030.2 - 0.0 - - - - - - -
21/01:30am 9.5 SW 9 11 1030.1 - 0.0 - - - - - - -
21/01:00am 9.7 SSW 9 10 1030.1 - 0.0 - - - - - - -
21/12:30am 9.5 SW 8 10 1030.1 - 0.0 - - - - - - -
21/12:00am 9.7 SW 8 9 1030.3 - 0.0 - - - - - - -
 
Date/Time
EST
Temp

°C
Wind Pressure Rain
since 9am
mm
Weather Cloud Vis
km
Sea
Height
m
Swell
Dir
 
Speed
knots
Gust
knots
hPa Trend Height
m
Period
s
Dir
20/11:30pm 9.3 SW 7 9 1030.0 - 0.0 - - - - - - -
20/11:00pm 9.7 SW 8 9 1030.1 - 0.0 - - - - - - -
20/10:30pm 10.0 SW 8 9 1030.0 - 0.0 - - - - - - -
20/10:00pm 11.1 SSE 8 9 1030.1 - 0.0 - - - - - - -
20/09:30pm 11.2 SE 7 9 1029.9 - 0.0 - - - - - - -
20/09:00pm 11.1 ESE 9 11 1029.8 - 0.0 - - - - - - -
20/08:30pm 10.8 SE 9 12 1029.5 - 0.0 - - - - - - -
20/08:00pm 10.8 SE 8 11 1029.2 - 0.0 - - - - - - -
20/07:30pm 10.6 SE 9 11 1028.8 - 0.0 - - - - - - -
20/07:00pm 10.5 SE 8 11 1028.8 - 0.0 - - - - - - -
20/06:30pm 10.6 SE 9 12 1028.3 - 0.0 - - - - - - -
20/06:00pm 10.7 SE 9 12 1028.0 - 0.0 - - - - - - -
20/05:30pm 10.7 SE 10 13 1027.6 - 0.0 - - - - - - -
20/05:00pm 11.2 SSE 10 13 1027.4 - 0.0 - - - - - - -
20/04:30pm 11.8 SSE 11 14 1027.1 - 0.0 - - - - - - -
20/04:00pm 12.3 SSE 11 14 1027.0 - 0.0 - - - - - - -
20/03:30pm 12.8 SSE 10 13 1026.6 - 0.0 - - - - - - -
20/03:00pm 13.3 SSE 9 12 1026.5 - 0.0 - - - - - - -
20/02:30pm 13.4 SE 10 12 1026.2 - 0.0 - - - - - - -
20/02:00pm 13.8 SSE 10 13 1026.3 - 0.0 - - - - - - -
20/01:30pm 14.0 SSE 11 13 1026.1 - 0.0 - - - - - - -
20/01:00pm 13.8 SSE 11 13 1026.2 - 0.0 - - - - - - -
20/12:30pm 13.9 SSE 10 13 1026.2 - 0.0 - - - - - - -
20/12:00pm 13.8 S 10 13 1026.5 - 0.0 - - - - - - -
20/11:30am 13.8 S 10 11 1026.7 - 0.0 - - - - - - -
20/11:00am 13.7 S 10 13 1026.8 - 0.0 - - - - - - -
20/10:30am 13.2 S 10 13 1026.5 - 0.0 - - - - - - -
20/10:00am 12.9 S 11 13 1026.4 - 0.0 - - - - - - -
20/09:30am 12.1 S 11 13 1026.1 - 0.0 - - - - - - -
20/09:00am 11.1 SSW 10 13 1026.0 - 0.0 - - - - - - -
20/08:30am 9.9 SSW 9 11 1025.7 - 0.0 - - - - - - -
20/08:00am 9.0 SSW 7 9 1025.4 - 0.0 - - - - - - -
20/07:30am 8.1 SSW 7 8 1025.0 - 0.0 - - - - - - -
20/07:00am 6.8 SSW 8 9 1024.8 - 0.0 - - - - - - -
20/06:30am 6.2 SW 6 7 1024.3 - 0.0 - - - - - - -
20/06:00am 6.6 SW 7 8 1024.2 - 0.0 - - - - - - -
20/05:30am 6.8 SSW 8 9 1024.0 - 0.0 - - - - - - -
20/05:00am 6.9 SSW 8 9 1023.9 - 0.0 - - - - - - -
20/04:30am 6.1 SW 8 9 1023.6 - 0.0 - - - - - - -
20/04:00am 7.0 SW 6 7 1023.5 - 0.0 - - - - - - -
20/03:30am 7.2 WSW 4 5 1023.5 - 0.0 - - - - - - -
20/03:00am 6.4 SW 5 6 1023.6 - 0.0 - - - - - - -
20/02:30am 6.2 SW 6 7 1023.6 - 0.0 - - - - - - -
20/02:00am 6.7 SSW 6 7 1023.8 - 0.0 - - - - - - -
20/01:30am 6.3 W 7 10 1023.7 - 0.0 - - - - - - -
20/01:00am 7.5 W 8 10 1023.6 - 0.0 - - - - - - -
20/12:30am 7.4 W 7 8 1023.6 - 0.0 - - - - - - -
20/12:00am 7.0 W 7 8 1023.8 - 0.0 - - - - - - -
 
Date/Time
EST
Temp

°C
Wind Pressure Rain
since 9am
mm
Weather Cloud Vis
km
Sea
Height
m
Swell
Dir
 
Speed
knots
Gust
knots
hPa Trend Height
m
Period
s
Dir
19/11:30pm 6.6 W 7 8 1023.7 - 0.0 - - - - - - -
19/11:00pm 6.6 W 8 9 1023.8 - 0.0 - - - - - - -
19/10:30pm 6.7 W 9 10 1023.7 - 0.0 - - - - - - -
19/10:00pm 6.7 W 9 10 1023.9 - 0.0 - - - - - - -
19/09:30pm 6.7 W 9 10 1023.7 - 0.0 - - - - - - -
19/09:00pm 6.7 W 8 9 1023.7 - 0.0 - - - - - - -
19/08:30pm 6.8 W 9 9 1023.7 - 0.0 - - - - - - -
19/08:00pm 7.2 W 10 11 1023.5 - 0.0 - - - - - - -
19/07:30pm 7.5 W 10 12 1023.3 - 0.0 - - - - - - -
19/07:00pm 7.9 W 9 11 1023.2 - 0.0 - - - - - - -
19/06:30pm 8.2 W 9 11 1022.8 - 0.0 - - - - - - -
19/06:00pm 9.2 WNW 7 8 1022.7 - 0.0 - - - - - - -
19/05:30pm 10.2 WNW 9 12 1022.3 - 0.0 - - - - - - -
19/05:00pm 11.6 NE 8 10 1022.3 - 0.0 - - - - - - -
19/04:30pm 12.1 NE 7 9 1022.2 - 0.0 - - - - - - -
19/04:00pm 12.8 NE 7 10 1022.3 - 0.0 - - - - - - -
19/03:30pm 12.7 NE 7 9 1022.1 - 0.0 - - - - - - -
19/03:00pm 12.7 NE 8 10 1022.1 - 0.0 - - - - - - -
19/02:30pm 13.0 NE 7 9 1022.0 - 0.0 - - - - - - -
19/02:00pm 14.1 NE 5 7 1022.2 - 0.0 - - - - - - -
19/01:30pm 13.3 ENE 5 6 1022.2 - 0.0 - - - - - - -
19/01:00pm 13.0 E 5 7 1022.5 - 0.0 - - - - - - -
19/12:30pm 13.0 SE 7 10 1022.7 - 0.0 - - - - - - -
19/12:00pm 13.5 SSE 9 11 1023.1 - 0.0 - - - - - - -
19/11:30am 13.5 SSE 9 11 1023.4 - 0.0 - - - - - - -
19/11:00am 13.5 SSE 8 10 1023.8 - 0.0 - - - - - - -
19/10:30am 12.9 S 9 11 1023.8 - 0.0 - - - - - - -
19/10:00am 12.4 S 9 11 1023.9 - 0.0 - - - - - - -
19/09:30am 11.3 SSW 9 11 1023.8 - 0.0 - - - - - - -
19/09:00am 10.2 SW 11 12 1024.0 - 0.2 - - - - - - -
19/08:30am 9.1 SSW 11 12 1024.0 - 0.2 - - - - - - -
19/08:00am 7.6 SW 13 14 1023.9 - 0.2 - - - - - - -
19/07:30am 7.3 SW 10 13 1023.7 - 0.2 - - - - - - -
19/07:00am 7.1 SW 11 13 1023.5 - 0.2 - - - - - - -
19/06:30am 7.2 SW 10 11 1023.2 - 0.2 - - - - - - -
19/06:00am 7.4 SW 10 11 1023.1 - 0.2 - - - - - - -
19/05:30am 7.3 SSW 10 12 1022.7 - 0.2 - - - - - - -
19/05:00am 8.1 SW 11 14 1022.7 - 0.2 - - - - - - -
19/04:30am 8.0 SW 12 13 1022.5 - 0.2 - - - - - - -
19/04:00am 7.9 SW 12 14 1022.7 - 0.2 - - - - - - -
19/03:30am 8.3 SSW 11 12 1022.6 - 0.2 - - - - - - -
19/03:00am 8.7 SW 10 11 1022.8 - 0.2 - - - - - - -
19/02:30am 8.8 SW 12 15 1022.9 - 0.2 - - - - - - -
19/02:00am 8.7 SW 11 13 1023.1 - 0.2 - - - - - - -
19/01:30am 8.5 SW 11 12 1023.1 - 0.2 - - - - - - -
19/01:00am 8.2 SW 10 12 1023.2 - 0.2 - - - - - - -
19/12:30am 8.2 SW 11 13 1023.2 - 0.2 - - - - - - -
19/12:00am 8.2 SW 13 14 1023.3 - 0.2 - - - - - - -
 
Date/Time
EST
Temp

°C
Wind Pressure Rain
since 9am
mm
Weather Cloud Vis
km
Sea
Height
m
Swell
Dir
 
Speed
knots
Gust
knots
hPa Trend Height
m
Period
s
Dir
18/11:30pm 8.4 SW 14 16 1023.3 - 0.2 - - - - - - -
18/11:00pm 8.6 SW 13 15 1023.3 - 0.2 - - - - - - -
18/10:30pm 8.7 SW 13 15 1023.2 - 0.2 - - - - - - -
18/10:00pm 8.7 SW 13 15 1023.4 - 0.2 - - - - - - -
18/09:30pm 9.1 SSW 13 15 1023.1 - 0.2 - - - - - - -
18/09:00pm 10.1 SSW 17 19 1023.2 - 0.2 - - - - - - -
18/08:30pm 10.4 SSW 18 20 1023.1 - 0.2 - - - - - - -

Other Formats:

Comma delimited format used in spreadsheet applications
http://www.bom.gov.au/fwo/IDT60701/IDT60701.94983.axf

JavaScript Object Notation format (JSON) in row-major order
http://www.bom.gov.au/fwo/IDT60701/IDT60701.94983.json